createdAt,value
2022-08-16T00:02:26.358Z,69.88
2022-08-16T00:04:59.790Z,69.83
2022-08-16T00:07:29.510Z,70.13
2022-08-16T00:09:59.387Z,70.25
2022-08-16T00:12:29.364Z,69.87
2022-08-16T00:15:13.330Z,70.13
2022-08-16T00:17:56.979Z,70.17
2022-08-16T00:20:27.977Z,70.37
2022-08-16T00:22:58.833Z,70.44
2022-08-16T00:25:34.370Z,70.39
2022-08-16T00:28:17.292Z,70.15
2022-08-16T00:30:45.732Z,70.25
2022-08-16T00:33:15.516Z,70.35
2022-08-16T00:35:46.075Z,69.98
2022-08-16T00:38:40.985Z,70.12
2022-08-16T00:41:07.274Z,70.05
2022-08-16T00:43:40.689Z,70.19
2022-08-16T00:46:22.378Z,70.14
2022-08-16T00:49:02.683Z,70.26
2022-08-16T00:51:32.498Z,70.19
2022-08-16T00:54:02.869Z,70.27
2022-08-16T00:56:58.538Z,70.48
2022-08-16T00:59:27.918Z,70.65
2022-08-16T01:01:57.065Z,70.60
2022-08-16T01:04:30.922Z,70.61
2022-08-16T01:07:06.683Z,70.83
2022-08-16T01:09:42.903Z,70.72
2022-08-16T01:12:26.268Z,70.84
2022-08-16T01:15:00.947Z,71.22
2022-08-16T01:17:36.851Z,71.33
2022-08-16T01:20:24.519Z,71.15
2022-08-16T01:23:09.053Z,71.31
2022-08-16T01:25:44.086Z,71.72
2022-08-16T01:28:19.639Z,71.59
2022-08-16T01:30:54.261Z,72.08
2022-08-16T01:33:24.626Z,72.60
2022-08-16T01:36:12.173Z,72.25
2022-08-16T01:38:49.075Z,72.50
2022-08-16T01:41:29.701Z,72.40
2022-08-16T01:44:01.070Z,72.86
2022-08-16T01:46:39.131Z,72.92
2022-08-16T01:49:43.468Z,73.04
2022-08-16T01:52:29.407Z,73.26
2022-08-16T01:55:26.031Z,73.11
2022-08-16T01:58:06.195Z,73.31
2022-08-16T02:00:40.314Z,73.37
2022-08-16T02:03:12.556Z,73.10
2022-08-16T02:05:51.717Z,73.30
2022-08-16T02:08:33.385Z,73.56
2022-08-16T02:11:06.933Z,74.07
2022-08-16T02:13:41.637Z,73.96
2022-08-16T02:16:18.749Z,74.03
2022-08-16T02:18:48.781Z,74.19
2022-08-16T02:21:31.337Z,74.59
2022-08-16T02:24:00.969Z,74.81
2022-08-16T02:26:29.617Z,74.88
2022-08-16T02:29:04.525Z,74.93
2022-08-16T02:32:03.068Z,74.90
2022-08-16T02:34:32.905Z,74.64
2022-08-16T02:37:10.977Z,74.74
2022-08-16T02:39:41.428Z,74.98
2022-08-16T02:42:10.289Z,74.95
2022-08-16T02:44:42.489Z,74.90
2022-08-16T02:47:11.662Z,75.10
2022-08-16T02:50:52.874Z,75.25
2022-08-16T02:52:43.909Z,75.33
2022-08-16T02:55:15.658Z,75.47
2022-08-16T02:57:54.093Z,75.40
2022-08-16T03:00:34.553Z,75.71
2022-08-16T03:03:10.615Z,75.66
2022-08-16T03:05:39.634Z,75.89
2022-08-16T03:08:50.381Z,75.67
2022-08-16T03:11:00.353Z,76.18
2022-08-16T03:13:29.237Z,76.16
2022-08-16T03:16:00.077Z,76.00
2022-08-16T03:18:34.464Z,76.45
2022-08-16T03:21:10.085Z,76.58
2022-08-16T03:23:38.805Z,76.72
2022-08-16T03:26:09.626Z,76.72
2022-08-16T03:28:39.435Z,76.46
2022-08-16T03:31:10.404Z,76.52
2022-08-16T03:33:43.842Z,76.79
2022-08-16T03:36:29.889Z,76.61
2022-08-16T03:39:03.583Z,76.89
2022-08-16T03:41:50.255Z,76.91
2022-08-16T03:44:44.681Z,76.80
2022-08-16T03:47:13.468Z,76.85
2022-08-16T03:49:51.648Z,76.91
2022-08-16T03:52:23.575Z,76.77
2022-08-16T03:54:58.182Z,77.24
2022-08-16T03:57:31.632Z,77.37
2022-08-16T04:00:20.703Z,77.65
2022-08-16T04:03:08.804Z,77.52
2022-08-16T04:05:44.612Z,77.61
2022-08-16T04:08:23.813Z,77.80
2022-08-16T04:10:57.902Z,78.11
2022-08-16T04:14:01.562Z,78.04
2022-08-16T04:16:26.660Z,77.94
2022-08-16T04:19:02.025Z,77.96
2022-08-16T04:21:32.299Z,77.83
2022-08-16T04:24:02.026Z,77.74
2022-08-16T04:26:32.669Z,78.10
2022-08-16T04:29:16.266Z,78.16
2022-08-16T04:31:56.056Z,77.98
2022-08-16T04:34:33.474Z,78.04
2022-08-16T04:37:03.325Z,78.18
2022-08-16T04:39:47.065Z,77.85
2022-08-16T04:42:26.028Z,77.87
2022-08-16T04:44:57.612Z,77.77
2022-08-16T04:47:35.502Z,78.01
2022-08-16T04:50:14.502Z,77.56
2022-08-16T04:52:59.927Z,77.52
2022-08-16T04:55:38.255Z,77.50
2022-08-16T04:58:38.490Z,77.58
2022-08-16T05:01:00.855Z,77.44
2022-08-16T05:03:31.802Z,77.72
2022-08-16T05:06:06.993Z,77.66
2022-08-16T05:08:36.005Z,77.64
2022-08-16T05:11:15.812Z,77.53
2022-08-16T05:13:49.312Z,77.30
2022-08-16T05:16:27.955Z,77.17
2022-08-16T05:19:17.474Z,77.23
2022-08-16T05:22:07.291Z,77.03
2022-08-16T05:24:47.447Z,77.26
2022-08-16T05:27:15.992Z,77.00
2022-08-16T05:30:00.966Z,77.03
2022-08-16T05:32:36.596Z,76.98
2022-08-16T05:35:16.558Z,77.18
2022-08-16T05:38:32.305Z,77.17
2022-08-16T05:41:01.965Z,76.78
2022-08-16T05:43:43.196Z,76.75
2022-08-16T05:46:29.700Z,76.84
2022-08-16T05:49:09.506Z,76.83
2022-08-16T05:51:42.500Z,76.41
2022-08-16T05:54:24.958Z,76.54
2022-08-16T05:56:57.863Z,76.69
2022-08-16T05:59:29.314Z,76.69
2022-08-16T06:01:59.716Z,76.69
2022-08-16T06:04:35.639Z,76.61
2022-08-16T06:07:24.356Z,76.45
2022-08-16T06:10:05.180Z,75.92
2022-08-16T06:12:36.895Z,75.98
2022-08-16T06:15:14.889Z,75.35
2022-08-16T06:17:46.349Z,75.18
2022-08-16T06:20:34.826Z,75.41
2022-08-16T06:23:16.927Z,75.53
2022-08-16T06:26:03.775Z,75.82
2022-08-16T06:28:39.111Z,75.50
2022-08-16T06:31:15.368Z,75.65
2022-08-16T06:33:47.927Z,75.66
2022-08-16T06:36:21.771Z,75.53
2022-08-16T06:39:00.304Z,75.59
2022-08-16T06:41:43.962Z,75.17
2022-08-16T06:44:24.488Z,75.06
2022-08-16T06:47:02.853Z,75.15
2022-08-16T06:49:31.983Z,74.75
2022-08-16T06:52:02.933Z,74.77
2022-08-16T06:54:36.365Z,74.36
2022-08-16T06:57:16.548Z,74.19
2022-08-16T06:59:52.790Z,74.11
2022-08-16T07:02:32.895Z,73.90
2022-08-16T07:05:04.106Z,73.61
2022-08-16T07:07:50.686Z,73.51
2022-08-16T07:10:25.859Z,73.27
2022-08-16T07:13:04.431Z,72.92
2022-08-16T07:15:50.488Z,72.80
2022-08-16T07:18:24.859Z,71.38
2022-08-16T07:20:57.794Z,70.23
2022-08-16T07:23:37.000Z,69.52
2022-08-16T07:26:24.878Z,69.02
2022-08-16T07:28:56.898Z,68.02
2022-08-16T07:31:25.415Z,66.47
2022-08-16T07:34:10.023Z,65.20
2022-08-16T07:36:39.009Z,63.50
2022-08-16T07:39:08.747Z,62.20
2022-08-16T07:41:40.157Z,61.18
2022-08-16T07:44:15.425Z,60.50
2022-08-16T07:46:45.069Z,59.55
2022-08-16T07:49:22.674Z,59.34
2022-08-16T07:51:55.997Z,58.95
2022-08-16T07:54:37.955Z,58.79
2022-08-16T07:57:12.150Z,58.67
2022-08-16T07:59:45.998Z,58.48
2022-08-16T08:02:20.618Z,58.20
2022-08-16T08:04:55.469Z,57.48
2022-08-16T08:07:28.106Z,57.18
2022-08-16T08:09:58.440Z,56.61
2022-08-16T08:12:32.495Z,56.16
2022-08-16T08:15:11.341Z,55.27
2022-08-16T08:17:44.086Z,54.85
2022-08-16T08:20:27.976Z,53.75
2022-08-16T08:23:02.737Z,53.28
2022-08-16T08:25:54.102Z,52.28
2022-08-16T08:28:24.130Z,52.80
2022-08-16T08:31:02.436Z,51.32
2022-08-16T08:33:34.941Z,50.67
2022-08-16T08:36:10.196Z,50.07
2022-08-16T08:38:44.291Z,49.62
2022-08-16T08:41:18.284Z,49.72
2022-08-16T08:43:50.377Z,49.61
2022-08-16T08:46:23.621Z,48.56
2022-08-16T08:49:00.125Z,48.39
2022-08-16T08:51:36.810Z,47.41
2022-08-16T08:54:09.753Z,46.63
2022-08-16T08:56:45.271Z,46.25
2022-08-16T08:59:33.694Z,46.52
2022-08-16T09:02:08.887Z,48.06
2022-08-16T09:04:47.875Z,48.76
2022-08-16T09:07:22.096Z,49.71
2022-08-16T09:10:06.369Z,50.29
2022-08-16T09:12:38.100Z,49.45
2022-08-16T09:15:13.757Z,47.89
2022-08-16T09:17:52.151Z,46.63
2022-08-16T09:20:30.329Z,46.55
2022-08-16T09:23:02.340Z,47.07
2022-08-16T09:25:36.044Z,46.32
2022-08-16T09:28:09.371Z,45.29
2022-08-16T09:30:45.222Z,45.21
2022-08-16T09:33:19.903Z,45.32
2022-08-16T09:35:53.519Z,44.81
2022-08-16T09:38:32.049Z,44.11
2022-08-16T09:41:02.665Z,43.40
2022-08-16T09:43:59.435Z,42.92
2022-08-16T09:46:44.923Z,41.66
2022-08-16T09:49:13.940Z,41.21
2022-08-16T09:51:42.409Z,40.81
2022-08-16T09:54:17.174Z,40.32
2022-08-16T09:56:52.835Z,40.33
2022-08-16T09:59:25.673Z,40.87
2022-08-16T10:01:59.584Z,40.41
2022-08-16T10:04:36.634Z,39.85
2022-08-16T10:07:16.020Z,39.77
2022-08-16T10:09:54.682Z,38.82
2022-08-16T10:12:44.405Z,38.54
2022-08-16T10:15:17.876Z,38.30
2022-08-16T10:18:01.361Z,37.97
2022-08-16T10:20:35.994Z,37.45
2022-08-16T10:23:09.912Z,36.92
2022-08-16T10:27:16.381Z,36.61
2022-08-16T10:28:40.162Z,36.27
2022-08-16T10:31:16.907Z,36.21
2022-08-16T10:34:02.274Z,35.36
2022-08-16T10:36:39.237Z,35.62
2022-08-16T10:39:08.779Z,35.18
2022-08-16T10:41:37.446Z,35.08
2022-08-16T10:44:09.441Z,35.06
2022-08-16T10:46:41.845Z,34.35
2022-08-16T10:49:12.381Z,34.75
2022-08-16T10:52:01.735Z,35.72
2022-08-16T10:54:31.316Z,35.75
2022-08-16T10:57:00.943Z,35.45
2022-08-16T10:59:46.027Z,35.05
2022-08-16T11:02:57.834Z,34.37
2022-08-16T11:05:16.520Z,33.97
2022-08-16T11:07:52.483Z,33.49
2022-08-16T11:13:57.575Z,33.58
2022-08-16T11:19:06.483Z,33.02
2022-08-16T11:24:41.515Z,32.22
2022-08-16T11:27:24.165Z,32.01
2022-08-16T11:30:01.849Z,31.75
2022-08-16T11:32:33.635Z,31.76
2022-08-16T11:35:13.883Z,31.90
2022-08-16T11:40:44.246Z,32.29
2022-08-16T11:43:16.918Z,32.01
2022-08-16T11:45:53.959Z,31.77
2022-08-16T11:48:24.559Z,31.08
2022-08-16T11:50:53.526Z,31.03
2022-08-16T11:53:22.759Z,30.91
2022-08-16T11:55:55.256Z,30.69
2022-08-16T11:58:26.090Z,30.45
2022-08-16T12:00:59.217Z,30.25
2022-08-16T12:03:36.757Z,30.31
2022-08-16T12:06:25.123Z,30.58
2022-08-16T12:09:02.260Z,30.99
2022-08-16T12:11:33.964Z,29.78
2022-08-16T12:14:04.724Z,29.58
2022-08-16T12:16:35.669Z,29.19
2022-08-16T12:19:06.509Z,28.67
2022-08-16T12:21:58.487Z,28.52
2022-08-16T12:24:29.285Z,28.01
2022-08-16T12:26:59.986Z,28.00
2022-08-16T12:29:29.807Z,28.52
2022-08-16T12:32:26.561Z,28.03
2022-08-16T12:34:50.649Z,28.17
2022-08-16T12:37:24.386Z,29.20
2022-08-16T12:39:55.892Z,28.32
2022-08-16T12:42:35.188Z,28.49
2022-08-16T12:45:08.377Z,28.32
2022-08-16T12:48:09.904Z,28.08
2022-08-16T12:50:43.229Z,27.69
2022-08-16T12:53:20.530Z,27.74
2022-08-16T12:55:50.252Z,28.08
2022-08-16T12:58:49.468Z,27.16
2022-08-16T13:01:11.300Z,26.43
2022-08-16T13:04:12.444Z,26.19
2022-08-16T13:06:52.320Z,26.32
2022-08-16T13:09:24.178Z,26.20
2022-08-16T13:12:03.669Z,26.38
2022-08-16T13:14:41.354Z,26.07
2022-08-16T13:17:18.686Z,26.16
2022-08-16T13:20:08.272Z,25.69
2022-08-16T13:25:21.157Z,25.09
2022-08-16T13:28:02.308Z,24.87
2022-08-16T13:30:41.890Z,25.35
2022-08-16T13:33:16.933Z,25.06
2022-08-16T13:35:55.703Z,26.00
2022-08-16T13:38:37.294Z,26.99
2022-08-16T13:41:08.313Z,27.58
2022-08-16T13:43:39.254Z,26.52
2022-08-16T13:46:09.845Z,25.97
2022-08-16T13:48:44.764Z,25.29
2022-08-16T13:51:17.513Z,24.81
2022-08-16T13:53:54.232Z,24.64
2022-08-16T13:56:36.860Z,24.80
2022-08-16T13:59:19.545Z,24.62
2022-08-16T14:01:55.461Z,24.54
2022-08-16T14:04:27.635Z,24.34
2022-08-16T14:06:58.708Z,24.15
2022-08-16T14:09:29.102Z,24.09
2022-08-16T14:11:58.609Z,23.91
2022-08-16T14:14:30.352Z,23.86
2022-08-16T14:17:03.165Z,23.84
2022-08-16T14:19:31.959Z,23.59
2022-08-16T14:22:13.758Z,23.49
2022-08-16T14:24:45.363Z,23.20
2022-08-16T14:27:17.741Z,23.15
2022-08-16T14:29:49.296Z,23.05
2022-08-16T14:32:27.236Z,23.82
2022-08-16T14:35:07.277Z,24.25
2022-08-16T14:37:36.904Z,24.04
2022-08-16T14:40:06.832Z,24.28
2022-08-16T14:42:36.743Z,24.32
2022-08-16T14:45:07.579Z,23.85
2022-08-16T14:47:38.463Z,23.57
2022-08-16T14:50:10.002Z,23.25
2022-08-16T14:52:58.280Z,23.37
2022-08-16T14:55:29.965Z,23.58
2022-08-16T14:57:59.074Z,23.53
2022-08-16T15:00:36.360Z,23.85
2022-08-16T15:03:10.594Z,23.82
2022-08-16T15:05:41.686Z,23.65
2022-08-16T15:08:11.192Z,23.41
2022-08-16T15:10:42.906Z,23.29
2022-08-16T15:13:15.656Z,23.19
2022-08-16T15:15:45.355Z,23.04
2022-08-16T15:18:31.938Z,22.94
2022-08-16T15:21:02.094Z,22.96
2022-08-16T15:23:33.595Z,23.07
2022-08-16T15:26:04.515Z,22.97
2022-08-16T15:28:38.092Z,23.24
2022-08-16T15:31:10.360Z,23.17
2022-08-16T15:33:50.748Z,23.58
2022-08-16T15:36:23.632Z,23.31
2022-08-16T15:39:05.559Z,23.16
2022-08-16T15:42:03.425Z,22.89
2022-08-16T15:44:45.087Z,22.70
2022-08-16T15:47:25.783Z,22.96
2022-08-16T15:49:57.851Z,23.06
2022-08-16T15:52:32.670Z,22.86
2022-08-16T15:55:07.548Z,22.99
2022-08-16T15:57:52.643Z,23.13
2022-08-16T16:00:22.241Z,23.16
2022-08-16T16:03:04.214Z,23.30
2022-08-16T16:05:41.202Z,23.53
2022-08-16T16:08:10.999Z,23.45
2022-08-16T16:10:43.303Z,23.46
2022-08-16T16:13:13.244Z,23.82
2022-08-16T16:15:46.084Z,23.65
2022-08-16T16:18:15.985Z,23.58
2022-08-16T16:20:50.124Z,23.73
2022-08-16T16:23:24.631Z,23.60
2022-08-16T16:25:54.711Z,23.82
2022-08-16T16:29:08.576Z,23.66
2022-08-16T16:31:18.419Z,23.33
2022-08-16T16:33:55.663Z,23.21
2022-08-16T16:36:29.577Z,22.97
2022-08-16T16:38:58.406Z,22.99
2022-08-16T16:41:28.846Z,23.07
2022-08-16T16:44:00.905Z,22.76
2022-08-16T16:46:42.719Z,22.67
2022-08-16T16:49:14.498Z,22.66
2022-08-16T16:51:50.118Z,22.69
2022-08-16T16:54:28.062Z,23.01
2022-08-16T16:56:58.437Z,23.46
2022-08-16T16:59:27.972Z,23.74
2022-08-16T17:02:38.928Z,24.07
2022-08-16T17:04:47.913Z,24.30
2022-08-16T17:07:20.653Z,24.08
2022-08-16T17:09:53.317Z,24.10
2022-08-16T17:12:24.733Z,24.08
2022-08-16T17:15:12.024Z,24.17
2022-08-16T17:18:00.219Z,24.68
2022-08-16T17:20:31.009Z,24.22
2022-08-16T17:23:01.067Z,24.33
2022-08-16T17:25:36.861Z,25.13
2022-08-16T17:28:59.113Z,25.95
2022-08-16T17:30:58.481Z,25.98
2022-08-16T17:33:28.553Z,26.42
2022-08-16T17:36:08.531Z,27.10
2022-08-16T17:38:43.873Z,27.85
2022-08-16T17:41:15.650Z,28.03
2022-08-16T17:43:46.094Z,28.26
2022-08-16T17:46:50.446Z,28.43
2022-08-16T17:49:05.756Z,28.79
2022-08-16T17:51:34.744Z,29.01
2022-08-16T17:54:04.809Z,29.15
2022-08-16T17:56:33.528Z,29.58
2022-08-16T17:59:02.225Z,29.81
2022-08-16T18:01:30.710Z,30.30
2022-08-16T18:04:06.833Z,30.71
2022-08-16T18:06:38.530Z,30.99
2022-08-16T18:09:10.439Z,31.66
2022-08-16T18:11:43.063Z,31.58
2022-08-16T18:14:15.885Z,31.71
2022-08-16T18:16:45.542Z,32.14
2022-08-16T18:19:13.898Z,32.71
2022-08-16T18:22:00.209Z,32.86
2022-08-16T18:24:31.196Z,33.04
2022-08-16T18:27:24.779Z,33.08
2022-08-16T18:29:52.129Z,33.91
2022-08-16T18:32:22.162Z,33.75
2022-08-16T18:34:54.269Z,33.85
2022-08-16T18:37:23.503Z,34.40
2022-08-16T18:39:53.419Z,34.54
2022-08-16T18:42:21.825Z,34.52
2022-08-16T18:44:50.154Z,34.68
2022-08-16T18:47:18.602Z,35.00
2022-08-16T18:49:47.021Z,34.99
2022-08-16T18:52:25.493Z,35.19
2022-08-16T18:55:01.969Z,35.59
2022-08-16T18:57:31.993Z,35.73
2022-08-16T19:00:00.819Z,35.85
2022-08-16T19:02:57.317Z,35.87
2022-08-16T19:05:24.640Z,36.16
2022-08-16T19:07:53.521Z,36.56
2022-08-16T19:10:23.540Z,36.66
2022-08-16T19:12:52.329Z,37.04
2022-08-16T19:15:25.963Z,36.79
2022-08-16T19:17:55.131Z,37.01
2022-08-16T19:20:26.776Z,37.23
2022-08-16T19:23:05.836Z,37.38
2022-08-16T19:25:47.245Z,37.45
2022-08-16T19:28:21.829Z,37.69
2022-08-16T19:31:14.625Z,37.77
2022-08-16T19:33:53.859Z,38.02
2022-08-16T19:36:31.639Z,38.26
2022-08-16T19:39:05.905Z,38.51
2022-08-16T19:41:38.123Z,38.46
2022-08-16T19:44:07.739Z,38.92
2022-08-16T19:46:37.761Z,39.03
2022-08-16T19:49:06.852Z,39.30
2022-08-16T19:51:35.264Z,39.24
2022-08-16T19:54:03.819Z,39.75
2022-08-16T19:56:32.226Z,39.77
2022-08-16T19:59:18.542Z,39.89
2022-08-16T20:01:52.541Z,40.45
2022-08-16T20:04:22.182Z,40.69
2022-08-16T20:06:52.356Z,41.11
2022-08-16T20:09:21.786Z,41.11
2022-08-16T20:11:52.054Z,41.32
2022-08-16T20:14:25.185Z,41.39
2022-08-16T20:16:57.606Z,41.61
2022-08-16T20:19:27.643Z,41.61
2022-08-16T20:22:01.631Z,41.78
2022-08-16T20:24:35.186Z,42.04
2022-08-16T20:27:09.457Z,42.02
2022-08-16T20:29:44.594Z,42.12
2022-08-16T20:32:16.698Z,42.40
2022-08-16T20:34:47.817Z,42.45
2022-08-16T20:37:16.661Z,42.82
2022-08-16T20:39:46.508Z,42.87
2022-08-16T20:42:18.975Z,43.31
2022-08-16T20:44:49.876Z,42.98
2022-08-16T20:47:18.349Z,43.32
2022-08-16T20:49:46.735Z,43.64
2022-08-16T20:52:17.578Z,43.54
2022-08-16T20:54:47.305Z,43.51
2022-08-16T20:57:17.401Z,44.07
2022-08-16T20:59:50.004Z,44.23
2022-08-16T21:02:28.134Z,44.04
2022-08-16T21:04:56.619Z,44.13
2022-08-16T21:07:25.355Z,44.15
2022-08-16T21:09:54.229Z,44.33
2022-08-16T21:12:23.464Z,44.80
2022-08-16T21:14:55.742Z,44.95
2022-08-16T21:17:25.466Z,45.04
2022-08-16T21:19:54.356Z,44.84
2022-08-16T21:22:24.283Z,45.12
2022-08-16T21:24:53.966Z,45.47
2022-08-16T21:27:24.314Z,45.18
2022-08-16T21:29:54.711Z,45.64
2022-08-16T21:32:35.668Z,45.70
2022-08-16T21:35:12.150Z,45.75
2022-08-16T21:37:41.511Z,45.86
2022-08-16T21:40:12.131Z,45.89
2022-08-16T21:42:42.958Z,46.13
2022-08-16T21:45:15.100Z,46.44
2022-08-16T21:47:45.149Z,46.39
2022-08-16T21:50:15.238Z,46.80
2022-08-16T21:52:44.073Z,46.62
2022-08-16T21:55:12.566Z,46.78
2022-08-16T21:57:40.951Z,46.92
2022-08-16T22:00:14.627Z,47.24
2022-08-16T22:02:49.147Z,47.54
2022-08-16T22:05:19.392Z,47.21
2022-08-16T22:07:47.720Z,47.81
2022-08-16T22:11:06.477Z,47.88
2022-08-16T22:13:05.628Z,48.06
2022-08-16T22:15:34.215Z,48.25
2022-08-16T22:18:04.077Z,48.29
2022-08-16T22:20:32.746Z,48.10
2022-08-16T22:23:12.069Z,48.08
2022-08-16T22:25:44.174Z,48.65
2022-08-16T22:28:13.009Z,48.75
2022-08-16T22:30:42.067Z,49.00
2022-08-16T22:33:14.974Z,49.09
2022-08-16T22:35:46.862Z,49.30
2022-08-16T22:38:55.278Z,49.50
2022-08-16T22:41:05.989Z,49.55
2022-08-16T22:43:34.701Z,49.58
2022-08-16T22:46:03.106Z,49.91
2022-08-16T22:48:39.443Z,49.75
2022-08-16T22:51:11.045Z,50.15
2022-08-16T22:53:39.431Z,50.20
2022-08-16T22:56:08.294Z,50.35
2022-08-16T22:58:37.362Z,50.26
2022-08-16T23:01:07.371Z,50.54
2022-08-16T23:03:38.276Z,50.83
2022-08-16T23:06:08.052Z,50.82
2022-08-16T23:08:40.933Z,50.86
2022-08-16T23:11:12.079Z,51.38
2022-08-16T23:13:50.718Z,51.22
2022-08-16T23:16:33.051Z,51.32
2022-08-16T23:19:06.155Z,51.37
2022-08-16T23:21:37.329Z,51.79
2022-08-16T23:24:06.800Z,52.05
2022-08-16T23:26:45.693Z,52.01
2022-08-16T23:29:23.643Z,52.20
2022-08-16T23:31:58.094Z,52.23
2022-08-16T23:34:29.542Z,52.52
2022-08-16T23:36:58.352Z,52.68
2022-08-16T23:39:26.999Z,52.84
2022-08-16T23:41:55.639Z,52.71
2022-08-16T23:44:56.410Z,53.21
2022-08-16T23:47:12.573Z,53.10
2022-08-16T23:50:01.597Z,53.32
2022-08-16T23:52:39.343Z,53.52
2022-08-16T23:55:19.561Z,53.70
2022-08-16T23:57:48.266Z,53.72
